Time;durP1;ratioP1;P1;durP2;ratioP2;P2;SDS_P1;SDS_P2;PMS_P1;PMS_P2;Temp;Humidity;BMP_temperature;BMP_pressure;BME280_temperature;BME280_humidity;BME280_pressure;Samples;Min_cycle;Max_cycle;Signal;HPM_P1;HPM_P2
2023/02/28 00:01:03;;;;;;;5.00;3.83;;;-1.20;99.90;;;;;;5023069;28;20446;-83
2023/02/28 00:03:29;;;;;;;5.30;4.00;;;-1.20;99.90;;;;;;5021267;28;20413;-84
2023/02/28 00:05:55;;;;;;;4.55;3.40;;;-1.20;99.90;;;;;;5020999;28;20473;-84
2023/02/28 00:08:20;;;;;;;4.70;3.23;;;-1.10;99.90;;;;;;5032983;28;20519;-85
2023/02/28 00:10:46;;;;;;;4.33;3.50;;;-1.20;99.90;;;;;;5015716;28;20418;-84
2023/02/28 00:13:13;;;;;;;4.10;3.50;;;-1.30;99.90;;;;;;5020296;28;20407;-84
2023/02/28 00:15:38;;;;;;;4.20;3.35;;;-1.40;99.90;;;;;;5020005;28;20402;-85
2023/02/28 00:18:04;;;;;;;4.30;3.38;;;-1.40;99.90;;;;;;5019131;28;20858;-85
2023/02/28 00:20:33;;;;;;;4.03;2.97;;;-1.50;99.90;;;;;;5018900;28;20406;-85
2023/02/28 00:22:59;;;;;;;4.10;3.00;;;-1.50;99.90;;;;;;5018246;28;20482;-84
2023/02/28 00:25:25;;;;;;;3.70;3.10;;;-1.50;99.90;;;;;;5018061;28;20383;-84
2023/02/28 00:27:51;;;;;;;4.50;3.15;;;-1.50;99.90;;;;;;5019677;28;20457;-85
2023/02/28 00:30:20;;;;;;;4.00;2.90;;;-1.40;99.90;;;;;;5018561;28;20441;-85
2023/02/28 00:32:46;;;;;;;5.57;3.10;;;-1.40;99.90;;;;;;5018656;28;20383;-84
2023/02/28 00:35:12;;;;;;;3.75;3.10;;;-1.40;99.90;;;;;;5020032;28;20383;-85
2023/02/28 00:37:39;;;;;;;3.42;3.13;;;-1.40;99.90;;;;;;5018462;28;20389;-84
2023/02/28 00:40:06;;;;;;;4.07;2.85;;;-1.60;99.90;;;;;;5019146;28;20383;-85
2023/02/28 00:42:32;;;;;;;3.33;2.83;;;-1.70;99.90;;;;;;5017872;28;20415;-84
2023/02/28 00:44:58;;;;;;;4.18;2.90;;;-1.60;99.90;;;;;;5034556;28;20394;-85
2023/02/28 00:47:24;;;;;;;3.75;3.08;;;-1.70;99.90;;;;;;5016598;28;20442;-86
2023/02/28 00:49:49;;;;;;;4.13;3.40;;;-1.80;99.90;;;;;;5018941;28;20398;-84
2023/02/28 00:52:15;;;;;;;3.90;3.33;;;-1.90;99.90;;;;;;5017725;28;20727;-84
2023/02/28 00:54:41;;;;;;;4.17;3.10;;;-2.10;99.90;;;;;;5019429;28;20762;-85
2023/02/28 00:57:07;;;;;;;5.97;3.50;;;-2.10;99.90;;;;;;5018120;28;20534;-84
2023/02/28 00:59:32;;;;;;;3.27;2.83;;;-2.20;99.90;;;;;;5018045;28;20526;-84
2023/02/28 01:01:58;;;;;;;3.90;3.10;;;-2.20;99.90;;;;;;5018256;28;20395;-83
2023/02/28 01:04:24;;;;;;;4.37;3.00;;;-2.30;99.90;;;;;;5019295;28;20437;-82
2023/02/28 01:06:50;;;;;;;4.90;3.10;;;-2.30;99.90;;;;;;5009462;28;20791;-84
2023/02/28 01:09:15;;;;;;;5.37;3.03;;;-2.40;99.90;;;;;;5018269;28;20449;-83
2023/02/28 01:14:17;;;;;;;4.32;3.20;;;-2.50;99.90;;;;;;4990048;23;20434;-83
2023/02/28 01:16:44;;;;;;;4.78;3.17;;;-2.40;99.90;;;;;;4976598;28;20397;-83
2023/02/28 01:19:10;;;;;;;4.10;3.30;;;-2.60;99.90;;;;;;4977918;28;20406;-84
2023/02/28 01:21:36;;;;;;;4.30;3.15;;;-2.70;99.90;;;;;;4978151;28;20433;-83
2023/02/28 01:24:03;;;;;;;3.63;2.85;;;-2.70;99.90;;;;;;4979875;28;20819;-83
2023/02/28 01:26:30;;;;;;;4.25;3.00;;;-2.70;99.90;;;;;;4979285;28;20823;-82
2023/02/28 01:28:55;;;;;;;3.57;2.90;;;-2.80;99.90;;;;;;4969381;28;20416;-83
2023/02/28 01:31:22;;;;;;;4.15;3.00;;;-3.00;99.90;;;;;;4974089;28;20421;-85
2023/02/28 01:33:48;;;;;;;3.20;2.90;;;-2.90;99.90;;;;;;4973091;28;20430;-84
2023/02/28 01:36:19;;;;;;;2.80;2.58;;;-2.80;99.90;;;;;;4972740;28;20417;-84
2023/02/28 01:38:46;;;;;;;3.97;2.72;;;-2.90;99.90;;;;;;4973486;28;20560;-82
2023/02/28 01:41:22;;;;;;;4.60;3.70;;;-2.90;99.90;;;;;;4964436;28;20465;-84
2023/02/28 01:43:47;;;;;;;3.65;3.15;;;-3.10;99.90;;;;;;4963807;28;20493;-83
2023/02/28 01:46:14;;;;;;;3.30;2.93;;;-3.20;99.90;;;;;;4955454;28;20390;-84
2023/02/28 01:49:04;;;;;;;3.70;3.00;;;-3.00;99.90;;;;;;4953004;28;22129;-85
2023/02/28 01:51:37;;;;;;;3.80;2.90;;;-3.00;99.90;;;;;;4952502;28;20418;-82
2023/02/28 01:54:13;;;;;;;5.10;3.25;;;-3.10;99.90;;;;;;4953316;28;20431;-82
2023/02/28 01:56:46;;;;;;;4.18;3.20;;;-3.10;99.90;;;;;;4956276;28;20414;-82
2023/02/28 01:59:17;;;;;;;3.85;2.80;;;-3.30;99.90;;;;;;4947222;28;22146;-82
2023/02/28 02:01:43;;;;;;;3.08;2.75;;;-3.30;99.90;;;;;;4948485;28;20410;-82
2023/02/28 02:04:09;;;;;;;4.78;3.70;;;-3.40;99.90;;;;;;4953153;28;20409;-84
2023/02/28 02:06:39;;;;;;;3.70;3.17;;;-3.40;99.90;;;;;;4973563;28;21012;-83
2023/02/28 02:09:06;;;;;;;4.28;3.00;;;-3.50;99.90;;;;;;4975121;28;20407;-83
2023/02/28 02:11:33;;;;;;;3.97;3.00;;;-3.60;99.90;;;;;;4966978;28;20418;-83
2023/02/28 02:13:59;;;;;;;3.55;2.88;;;-3.50;99.90;;;;;;4966595;28;20426;-83
2023/02/28 02:16:52;;;;;;;4.32;3.05;;;-3.50;99.90;;;;;;4976427;28;20460;-84
2023/02/28 02:19:31;;;;;;;4.95;3.28;;;-3.50;99.90;;;;;;4974814;28;20881;-82
2023/02/28 02:22:12;;;;;;;3.60;2.75;;;-3.50;99.90;;;;;;4975477;28;20401;-84
2023/02/28 02:24:47;;;;;;;3.75;3.20;;;-3.40;99.90;;;;;;4980037;28;20410;-84
2023/02/28 02:27:34;;;;;;;4.47;3.15;;;-3.60;99.90;;;;;;4977670;28;20491;-86
2023/02/28 02:30:19;;;;;;;4.83;3.30;;;-3.70;99.90;;;;;;4977255;28;20402;-85
2023/02/28 02:33:04;;;;;;;5.07;3.08;;;-3.70;99.90;;;;;;4980766;28;20402;-84
2023/02/28 02:35:32;;;;;;;4.07;3.05;;;-3.80;99.90;;;;;;4979736;28;20426;-84
2023/02/28 02:38:01;;;;;;;3.40;2.83;;;-3.70;99.90;;;;;;4977403;28;20402;-85
2023/02/28 02:40:38;;;;;;;4.40;2.90;;;-3.70;99.90;;;;;;4977475;28;20399;-84
2023/02/28 02:43:18;;;;;;;3.70;3.30;;;-3.70;99.90;;;;;;4977816;28;20445;-85
2023/02/28 02:45:59;;;;;;;4.35;3.15;;;-3.60;99.90;;;;;;4974485;28;20501;-85
2023/02/28 02:48:32;;;;;;;4.05;3.00;;;-3.70;99.90;;;;;;4978863;28;20409;-89
2023/02/28 02:51:11;;;;;;;4.00;2.97;;;-3.70;99.90;;;;;;4959211;28;20391;-85
2023/02/28 02:53:49;;;;;;;5.45;3.78;;;-3.80;99.90;;;;;;4967811;28;20421;-86
2023/02/28 02:56:19;;;;;;;4.43;3.70;;;-3.70;99.90;;;;;;4977135;28;20405;-83
2023/02/28 02:58:48;;;;;;;5.47;4.10;;;-3.70;99.90;;;;;;4977608;28;20425;-86
2023/02/28 03:01:29;;;;;;;4.88;3.47;;;-3.70;99.90;;;;;;4978393;28;20477;-85
2023/02/28 03:04:02;;;;;;;4.70;3.72;;;-3.70;99.90;;;;;;4978920;28;20398;-86
2023/02/28 03:06:28;;;;;;;4.05;3.40;;;-3.90;99.90;;;;;;4976086;28;20402;-86
2023/02/28 03:08:53;;;;;;;5.53;3.80;;;-3.90;99.90;;;;;;4976065;28;20409;-88
2023/02/28 03:11:20;;;;;;;5.63;4.13;;;-3.80;99.90;;;;;;4981627;28;20896;-85
2023/02/28 03:13:56;;;;;;;5.20;4.10;;;-4.00;99.90;;;;;;4975657;28;20492;-88
2023/02/28 03:17:03;;;;;;;5.53;3.95;;;-4.20;99.90;;;;;;4993042;28;20383;-85
2023/02/28 03:19:41;;;;;;;5.53;4.28;;;-4.30;99.90;;;;;;4976899;28;20390;-85
2023/02/28 03:22:25;;;;;;;6.95;4.10;;;-4.20;99.90;;;;;;4976941;28;20518;-89
2023/02/28 03:25:20;;;;;;;5.88;4.07;;;-4.30;99.90;;;;;;4976963;28;20474;-86
2023/02/28 03:28:15;;;;;;;5.03;4.38;;;-4.30;99.90;;;;;;4940300;28;20400;-87
2023/02/28 03:30:44;;;;;;;5.50;3.80;;;-4.40;99.90;;;;;;4975279;28;20382;-87
2023/02/28 03:33:26;;;;;;;5.17;4.30;;;-4.40;99.90;;;;;;4973516;28;20434;-86
2023/02/28 03:36:17;;;;;;;5.50;3.97;;;-4.40;99.90;;;;;;4973926;28;20395;-84
2023/02/28 03:39:02;;;;;;;5.63;3.72;;;-4.40;99.90;;;;;;4979635;28;20382;-86
2023/02/28 03:41:51;;;;;;;5.13;3.88;;;-4.20;99.90;;;;;;4971876;28;20390;-90
2023/02/28 03:44:34;;;;;;;4.53;3.97;;;-4.40;99.90;;;;;;4972183;28;20390;-86
2023/02/28 03:47:04;;;;;;;5.05;4.32;;;-4.40;99.90;;;;;;4971513;28;20386;-87
2023/02/28 03:49:37;;;;;;;4.97;4.25;;;-4.50;99.90;;;;;;4972799;28;20417;-86
2023/02/28 03:52:05;;;;;;;4.85;4.32;;;-4.40;99.90;;;;;;4970646;28;20386;-88
2023/02/28 03:54:36;;;;;;;5.20;4.50;;;-4.30;99.90;;;;;;4970696;28;20426;-89
2023/02/28 03:57:25;;;;;;;6.07;4.38;;;-4.30;99.90;;;;;;4953199;28;20475;-89
2023/02/28 04:00:05;;;;;;;5.25;4.30;;;-4.30;99.90;;;;;;4953406;28;20389;-87
2023/02/28 04:02:32;;;;;;;5.47;4.53;;;-4.60;99.90;;;;;;4953901;28;20396;-90
2023/02/28 04:04:58;;;;;;;4.93;4.33;;;-4.60;99.90;;;;;;4971266;28;20469;-87
2023/02/28 04:07:23;;;;;;;4.80;4.30;;;-4.50;99.90;;;;;;4985014;28;20489;-86
2023/02/28 04:09:49;;;;;;;7.28;4.28;;;-4.60;99.90;;;;;;4967332;28;20945;-86
2023/02/28 04:12:15;;;;;;;4.32;3.92;;;-4.70;99.90;;;;;;4970654;28;20430;-88
2023/02/28 04:14:40;;;;;;;5.95;4.32;;;-4.60;99.90;;;;;;4971204;28;20410;-86
2023/02/28 04:17:06;;;;;;;5.28;4.05;;;-4.60;99.90;;;;;;4970105;28;20438;-89
2023/02/28 04:19:32;;;;;;;4.82;4.10;;;-4.60;99.90;;;;;;4971801;28;20526;-88
2023/02/28 04:21:57;;;;;;;5.72;4.40;;;-4.50;99.90;;;;;;4971253;28;20387;-87
2023/02/28 04:24:25;;;;;;;5.45;4.60;;;-4.70;99.90;;;;;;4969985;28;20461;-87
2023/02/28 04:26:54;;;;;;;5.57;4.50;;;-4.70;99.90;;;;;;4969228;28;20390;-89
2023/02/28 04:29:26;;;;;;;6.20;5.28;;;-4.70;99.90;;;;;;4971269;28;20862;-89
2023/02/28 04:31:53;;;;;;;5.18;4.55;;;-4.80;99.90;;;;;;4969610;28;20953;-86
2023/02/28 04:34:19;;;;;;;5.95;4.53;;;-4.80;99.90;;;;;;4969235;28;20413;-88
2023/02/28 04:36:53;;;;;;;5.50;4.30;;;-4.80;99.90;;;;;;4969887;28;20387;-89
2023/02/28 04:39:20;;;;;;;6.90;4.70;;;-4.90;99.90;;;;;;4974053;28;20525;-90
2023/02/28 04:41:46;;;;;;;5.82;4.40;;;-4.80;99.90;;;;;;4972808;28;20398;-88
2023/02/28 04:44:12;;;;;;;5.65;4.75;;;-4.80;99.90;;;;;;4969504;28;20378;-88
2023/02/28 04:46:38;;;;;;;5.50;4.35;;;-4.80;99.90;;;;;;4973165;28;20394;-87
2023/02/28 04:49:04;;;;;;;4.88;4.38;;;-4.70;99.90;;;;;;4977578;28;20407;-86
2023/02/28 04:51:30;;;;;;;5.55;4.55;;;-4.90;99.90;;;;;;4971149;28;20387;-88
2023/02/28 04:53:55;;;;;;;5.15;4.40;;;-4.90;99.90;;;;;;4970616;28;20429;-87
2023/02/28 04:56:21;;;;;;;5.93;4.78;;;-5.00;99.90;;;;;;4970705;28;20374;-86
2023/02/28 04:58:47;;;;;;;8.38;4.88;;;-5.00;99.90;;;;;;4966267;28;20892;-88
2023/02/28 05:01:24;;;;;;;5.88;4.47;;;-5.10;99.90;;;;;;4969824;28;20398;-88
2023/02/28 05:03:51;;;;;;;7.53;5.20;;;-5.00;99.90;;;;;;4968084;28;20409;-85
2023/02/28 05:06:17;;;;;;;6.35;4.78;;;-5.00;99.90;;;;;;4970380;28;20468;-87
2023/02/28 05:08:43;;;;;;;7.03;4.68;;;-5.00;99.90;;;;;;4982788;28;20426;-87
2023/02/28 05:11:25;;;;;;;5.70;4.67;;;-5.00;99.90;;;;;;4969585;28;20382;-86
2023/02/28 05:13:52;;;;;;;7.25;5.32;;;-5.10;99.90;;;;;;4969935;28;20935;-88
2023/02/28 05:16:18;;;;;;;6.47;5.25;;;-5.10;99.90;;;;;;4990544;28;20385;-90
2023/02/28 05:18:45;;;;;;;6.70;5.57;;;-5.10;99.90;;;;;;4979015;28;20402;-87
2023/02/28 05:21:29;;;;;;;6.53;5.15;;;-5.20;99.90;;;;;;4970668;28;20722;-89
2023/02/28 05:23:57;;;;;;;7.95;5.82;;;-5.20;99.90;;;;;;4970208;28;20422;-86
2023/02/28 05:26:23;;;;;;;5.88;5.25;;;-5.00;99.90;;;;;;4970530;28;20406;-87
2023/02/28 05:28:49;;;;;;;6.72;5.20;;;-5.10;99.90;;;;;;4969459;28;20394;-87
2023/02/28 05:31:15;;;;;;;5.73;4.67;;;-5.00;99.90;;;;;;4969252;28;20529;-88
2023/02/28 05:33:40;;;;;;;6.32;4.40;;;-5.00;99.90;;;;;;4969607;28;20441;-87
2023/02/28 05:36:07;;;;;;;6.68;5.18;;;-4.90;99.90;;;;;;4968533;28;20399;-87
2023/02/28 05:38:32;;;;;;;6.25;5.25;;;-5.00;99.90;;;;;;4967973;28;20493;-87
2023/02/28 05:40:58;;;;;;;6.23;5.40;;;-5.00;99.90;;;;;;4970877;28;20446;-88
2023/02/28 05:43:24;;;;;;;5.80;5.20;;;-5.20;99.90;;;;;;4969491;28;20498;-89
2023/02/28 05:45:50;;;;;;;6.50;5.33;;;-5.30;99.90;;;;;;4974491;28;20402;-86
2023/02/28 05:48:16;;;;;;;7.47;5.30;;;-5.20;99.90;;;;;;4990333;28;20441;-86
2023/02/28 05:50:44;;;;;;;8.80;5.10;;;-5.20;99.90;;;;;;4970562;28;20399;-87
2023/02/28 05:53:10;;;;;;;7.93;5.67;;;-5.20;99.90;;;;;;4975516;28;20941;-87
2023/02/28 05:55:44;;;;;;;7.15;5.15;;;-5.30;99.90;;;;;;4971022;28;20466;-88
2023/02/28 05:58:10;;;;;;;8.25;5.70;;;-5.30;99.90;;;;;;4974769;28;20753;-87
2023/02/28 06:00:36;;;;;;;6.90;5.47;;;-5.30;99.90;;;;;;4973509;28;20399;-88
2023/02/28 06:03:02;;;;;;;8.60;5.85;;;-5.40;99.90;;;;;;4975063;28;20706;-87
2023/02/28 06:05:28;;;;;;;6.13;5.17;;;-5.20;99.90;;;;;;4975326;28;20794;-87
2023/02/28 06:07:53;;;;;;;6.68;5.43;;;-5.20;99.90;;;;;;4971088;28;20398;-87
2023/02/28 06:10:19;;;;;;;6.63;5.60;;;-5.10;99.90;;;;;;4974343;28;20745;-89
2023/02/28 06:12:45;;;;;;;6.05;5.25;;;-5.20;99.90;;;;;;4971463;28;20509;-89
2023/02/28 06:15:15;;;;;;;6.88;5.40;;;-5.00;99.90;;;;;;4972542;28;20410;-87
2023/02/28 06:17:41;;;;;;;8.50;5.78;;;-5.00;99.90;;;;;;4964871;28;20452;-89
2023/02/28 06:20:09;;;;;;;6.65;5.53;;;-4.90;99.90;;;;;;4969431;28;20417;-88
2023/02/28 06:22:37;;;;;;;7.40;5.45;;;-5.00;99.90;;;;;;4956323;28;20398;-85
2023/02/28 06:25:05;;;;;;;8.93;6.60;;;-5.00;99.90;;;;;;4989922;28;20402;-87
2023/02/28 06:27:31;;;;;;;20.45;15.00;;;-5.00;99.90;;;;;;4972467;28;20390;-86
2023/02/28 06:29:57;;;;;;;7.95;6.50;;;-5.00;99.90;;;;;;4973634;28;20390;-86
2023/02/28 06:32:23;;;;;;;10.63;8.53;;;-5.00;99.90;;;;;;4972321;28;20810;-85
2023/02/28 06:34:50;;;;;;;9.87;8.43;;;-4.90;99.90;;;;;;4973907;28;20489;-84
2023/02/28 06:37:16;;;;;;;9.43;6.75;;;-4.80;99.90;;;;;;4985897;28;20406;-85
2023/02/28 06:39:41;;;;;;;9.15;6.88;;;-4.70;99.90;;;;;;4987651;28;20391;-85
2023/02/28 06:42:07;;;;;;;6.45;5.47;;;-4.70;99.90;;;;;;4972960;28;20394;-84
2023/02/28 06:44:34;;;;;;;7.90;5.80;;;-4.70;99.90;;;;;;4972673;28;20484;-86
2023/02/28 06:47:04;;;;;;;8.90;5.90;;;-4.70;99.90;;;;;;4971916;28;20482;-84
2023/02/28 06:49:32;;;;;;;7.00;6.00;;;-4.70;99.90;;;;;;4973992;28;21525;-86
2023/02/28 06:51:58;;;;;;;6.95;5.80;;;-4.60;99.90;;;;;;4974187;28;20387;-84
2023/02/28 06:54:24;;;;;;;9.30;6.40;;;-4.30;99.90;;;;;;4975121;28;20414;-84
2023/02/28 06:56:50;;;;;;;7.57;6.05;;;-4.30;99.90;;;;;;4988865;28;20394;-86
2023/02/28 06:59:16;;;;;;;7.27;5.93;;;-4.20;99.90;;;;;;4975670;28;20504;-85
2023/02/28 07:01:42;;;;;;;7.47;6.70;;;-3.80;99.90;;;;;;4976801;28;20471;-85
2023/02/28 07:04:08;;;;;;;8.03;6.60;;;-3.80;99.90;;;;;;4978250;28;20443;-84
2023/02/28 07:06:34;;;;;;;9.00;7.37;;;-3.70;99.90;;;;;;4974722;28;20493;-84
2023/02/28 07:08:59;;;;;;;12.43;9.13;;;-3.60;99.90;;;;;;4989834;28;20402;-84
2023/02/28 07:11:27;;;;;;;11.40;9.70;;;-3.30;99.90;;;;;;4990140;28;20391;-84
2023/02/28 07:13:56;;;;;;;12.90;9.40;;;-3.10;99.90;;;;;;4973870;28;20406;-86
2023/02/28 07:16:24;;;;;;;9.85;8.48;;;-3.20;99.90;;;;;;4974939;28;20393;-86
2023/02/28 07:18:52;;;;;;;9.13;7.17;;;-2.80;99.90;;;;;;4974541;28;20599;-85
2023/02/28 07:21:17;;;;;;;9.48;7.50;;;-2.60;99.90;;;;;;4972628;28;20477;-84
2023/02/28 07:23:43;;;;;;;9.23;7.67;;;-2.30;99.90;;;;;;4974899;28;20809;-85
2023/02/28 07:26:14;;;;;;;8.07;6.87;;;-2.20;99.90;;;;;;4989837;28;20387;-86
2023/02/28 07:28:42;;;;;;;9.05;6.40;;;-2.20;99.90;;;;;;4973566;28;20383;-84
2023/02/28 07:31:09;;;;;;;7.20;5.90;;;-2.00;99.90;;;;;;4972068;28;20391;-86
2023/02/28 07:33:35;;;;;;;7.10;5.68;;;-1.70;99.90;;;;;;4975054;28;20442;-84
2023/02/28 07:36:06;;;;;;;6.50;5.10;;;-1.50;99.90;;;;;;4974547;28;20387;-85
2023/02/28 07:38:37;;;;;;;5.97;5.18;;;-1.40;99.90;;;;;;4971137;28;20473;-85
2023/02/28 07:41:06;;;;;;;5.50;4.82;;;-1.10;99.90;;;;;;4971739;28;20810;-84
2023/02/28 07:43:32;;;;;;;8.18;5.20;;;-0.90;99.90;;;;;;4971100;28;20382;-85
2023/02/28 07:46:08;;;;;;;6.63;5.95;;;-0.60;99.90;;;;;;4969839;28;20395;-86
2023/02/28 07:48:34;;;;;;;6.47;5.37;;;-0.30;99.90;;;;;;4970941;28;20438;-86
2023/02/28 07:51:00;;;;;;;7.55;5.00;;;-0.10;99.90;;;;;;4986048;28;20404;-85
2023/02/28 07:53:27;;;;;;;6.70;5.15;;;0.30;99.90;;;;;;4969330;28;20817;-85
2023/02/28 07:55:57;;;;;;;8.70;7.40;;;0.90;99.90;;;;;;4970884;28;20469;-85
2023/02/28 07:58:24;;;;;;;7.68;6.57;;;1.80;99.90;;;;;;4970862;28;20410;-87
2023/02/28 08:01:37;;;;;;;8.60;7.50;;;2.70;99.90;;;;;;4970260;28;20387;-85
2023/02/28 08:04:05;;;;;;;7.90;7.00;;;3.60;99.90;;;;;;4965756;28;20426;-87
2023/02/28 08:06:37;;;;;;;9.68;6.95;;;4.80;99.90;;;;;;4968127;28;20445;-85
2023/02/28 08:09:05;;;;;;;9.10;6.60;;;5.80;99.90;;;;;;4968209;28;20481;-85
2023/02/28 08:11:34;;;;;;;8.30;6.63;;;6.20;99.90;;;;;;4969420;28;20387;-85
2023/02/28 08:14:02;;;;;;;8.77;7.00;;;5.90;99.90;;;;;;4968992;28;20414;-84
2023/02/28 08:16:43;;;;;;;;;;;;;;;;;;;;;
2023/02/28 08:23:34;;;;;;;;;;;;;;;;;;;;;
2023/02/28 08:33:47;;;;;;;;;;;;;;;;;;;;;
2023/02/28 08:36:52;;;;;;;;;;;;;;;;;;;;;
2023/02/28 08:39:33;;;;;;;;;;;;;;;;;;;;;
2023/02/28 08:42:59;;;;;;;;;;;;;;;;;;;;;
2023/02/28 08:49:26;;;;;;;;;;;;;;;;;;;;;
2023/02/28 08:52:29;;;;;;;7.07;5.28;;;6.70;99.90;;;;;;4969531;28;20395;-84
2023/02/28 08:55:44;;;;;;;5.63;4.47;;;6.50;99.90;;;;;;4967284;28;20402;-84
2023/02/28 09:09:02;;;;;;;;;;;;;;;;;;;;;
2023/02/28 09:18:35;;;;;;;;;;;;;;;;;;;;;
2023/02/28 09:21:28;;;;;;;;;;;;;;;;;;;;;
2023/02/28 09:24:21;;;;;;;;;;;;;;;;;;;;;
2023/02/28 09:27:12;;;;;;;2.70;2.28;;;8.50;99.90;;;;;;4967115;28;20402;-84
2023/02/28 09:29:47;;;;;;;3.63;2.30;;;9.10;99.90;;;;;;4966783;28;20413;-84
2023/02/28 09:32:29;;;;;;;;;;;;;;;;;;;;;
2023/02/28 09:34:55;;;;;;;3.72;2.42;;;11.30;97.00;;;;;;4966532;28;20418;-84
2023/02/28 09:37:23;;;;;;;5.40;2.30;;;11.60;97.50;;;;;;4968866;28;20490;-84
2023/02/28 09:39:52;;;;;;;5.32;2.58;;;12.10;95.40;;;;;;4985047;28;20877;-84
2023/02/28 09:42:37;;;;;;;3.10;2.30;;;11.80;95.80;;;;;;4966936;28;20470;-84
2023/02/28 09:45:29;;;;;;;4.53;2.58;;;11.50;96.10;;;;;;4963856;28;20430;-85
2023/02/28 09:51:58;;;;;;;4.95;2.70;;;12.60;95.20;;;;;;4956977;28;20398;-85
2023/02/28 09:54:28;;;;;;;2.85;2.05;;;13.10;92.00;;;;;;4968428;28;20406;-84
2023/02/28 09:57:08;;;;;;;6.78;4.22;;;10.90;92.70;;;;;;4966480;28;20395;-85
2023/02/28 09:59:46;;;;;;;3.20;2.22;;;9.90;95.80;;;;;;4968946;28;20390;-83
2023/02/28 10:02:49;;;;;;;4.45;2.17;;;9.00;94.70;;;;;;4964194;28;20691;-84
2023/02/28 10:05:43;;;;;;;2.63;2.40;;;8.40;94.90;;;;;;4968665;28;20711;-83
2023/02/28 10:08:25;;;;;;;3.05;2.33;;;9.10;96.10;;;;;;4949588;28;20863;-83
2023/02/28 10:11:24;;;;;;;3.33;2.70;;;9.30;95.60;;;;;;4955248;28;20410;-84
2023/02/28 10:14:23;;;;;;;2.95;2.10;;;9.60;96.90;;;;;;4966345;28;20908;-83
2023/02/28 10:17:23;;;;;;;4.83;3.73;;;9.40;95.90;;;;;;4981955;28;20389;-83
2023/02/28 10:20:12;;;;;;;2.50;2.00;;;10.00;95.70;;;;;;4965812;28;20403;-83
2023/02/28 10:22:53;;;;;;;2.88;2.10;;;9.50;95.00;;;;;;4966878;28;20417;-84
2023/02/28 10:25:22;;;;;;;3.65;2.40;;;9.70;95.80;;;;;;4967992;28;20440;-83
2023/02/28 10:27:58;;;;;;;4.03;2.45;;;9.60;95.30;;;;;;4967780;28;20379;-83
2023/02/28 10:30:27;;;;;;;6.50;4.40;;;8.80;97.00;;;;;;4963883;28;20483;-84
2023/02/28 10:32:56;;;;;;;6.45;4.57;;;9.10;97.10;;;;;;4965649;28;21135;-84
2023/02/28 10:35:25;;;;;;;4.25;2.50;;;9.10;96.60;;;;;;4966030;28;20493;-82
2023/02/28 10:38:03;;;;;;;3.50;2.30;;;9.00;96.90;;;;;;4965974;28;20453;-85
2023/02/28 10:40:46;;;;;;;3.75;2.33;;;9.80;95.60;;;;;;4968688;28;20390;-85
2023/02/28 10:43:32;;;;;;;;;;;;;;;;;;;;;
2023/02/28 10:46:51;;;;;;;2.83;2.25;;;9.50;95.40;;;;;;4971926;28;20820;-83
2023/02/28 10:56:24;;;;;;;3.38;2.42;;;9.20;95.70;;;;;;4948908;28;20433;-83
2023/02/28 10:59:00;;;;;;;2.73;2.30;;;8.90;94.60;;;;;;4967467;28;20457;-85
2023/02/28 11:05:09;;;;;;;;;;;;;;;;;;;;;
2023/02/28 11:07:39;;;;;;;5.20;2.58;;;10.20;95.00;;;;;;4991454;28;20405;-87
2023/02/28 11:14:05;;;;;;;3.33;2.63;;;10.30;93.30;;;;;;4912681;29;20422;-85
2023/02/28 11:16:59;;;;;;;5.20;2.92;;;9.50;93.50;;;;;;4968308;28;20434;-86
2023/02/28 11:20:15;;;;;;;3.67;2.75;;;9.20;94.40;;;;;;4972870;28;20445;-86
2023/02/28 11:26:49;;;;;;;3.97;3.20;;;9.00;94.40;;;;;;4964898;28;20827;-86
2023/02/28 11:41:05;;;;;;;;;;;;;;;;;;;;;
2023/02/28 11:43:46;;;;;;;3.20;2.90;;;8.30;95.40;;;;;;4954057;28;20426;-85
2023/02/28 11:46:39;;;;;;;4.22;3.00;;;6.50;97.50;;;;;;4972005;28;20477;-86
2023/02/28 11:50:10;;;;;;;4.55;3.10;;;5.90;99.10;;;;;;4967807;28;20446;-85
2023/02/28 11:52:57;;;;;;;4.55;2.83;;;5.80;98.90;;;;;;4950624;28;20404;-86
2023/02/28 11:56:17;;;;;;;4.13;3.25;;;5.80;99.80;;;;;;4966883;28;20411;-87
2023/02/28 11:59:27;;;;;;;;;;;;;;;;;;;;;
2023/02/28 12:02:28;;;;;;;4.47;2.90;;;5.50;98.40;;;;;;4970481;28;21028;-86
2023/02/28 12:05:16;;;;;;;4.20;2.65;;;5.80;99.90;;;;;;4972091;28;20883;-86
2023/02/28 12:08:06;;;;;;;3.63;2.50;;;5.90;99.00;;;;;;4962357;28;20502;-86
2023/02/28 12:12:04;;;;;;;;;;;;;;;;;;;;;
2023/02/28 12:14:57;;;;;;;3.10;2.30;;;6.40;98.60;;;;;;4963120;28;20422;-85
2023/02/28 12:17:33;;;;;;;4.45;2.70;;;6.10;98.00;;;;;;4969044;28;20893;-85
2023/02/28 12:20:09;;;;;;;3.38;2.40;;;5.90;98.30;;;;;;4968815;28;20407;-84
2023/02/28 12:22:52;;;;;;;3.70;2.70;;;6.00;97.70;;;;;;4970733;28;20386;-85
2023/02/28 12:25:28;;;;;;;3.33;2.83;;;5.70;98.80;;;;;;4948674;28;20478;-84
2023/02/28 12:28:02;;;;;;;4.47;2.70;;;6.00;99.20;;;;;;4964687;28;20376;-83
2023/02/28 12:34:44;;;;;;;;;;;;;;;;;;;;;
2023/02/28 12:37:20;;;;;;;3.83;2.80;;;6.50;99.50;;;;;;4966254;28;20932;-85
2023/02/28 12:39:54;;;;;;;3.40;2.72;;;5.80;97.70;;;;;;4969168;28;20422;-85
2023/02/28 12:42:32;;;;;;;4.18;3.22;;;5.90;99.20;;;;;;4971112;28;20383;-86
2023/02/28 12:45:40;;;;;;;4.55;3.10;;;5.80;98.40;;;;;;4968166;28;20403;-86
2023/02/28 12:48:22;;;;;;;3.92;2.92;;;5.80;98.80;;;;;;4969142;28;20419;-86
2023/02/28 12:50:49;;;;;;;3.63;2.80;;;5.80;99.90;;;;;;4971898;28;20506;-85
2023/02/28 12:53:18;;;;;;;4.10;3.38;;;5.80;99.70;;;;;;4966759;28;20406;-86
2023/02/28 12:55:56;;;;;;;3.15;2.42;;;5.80;98.40;;;;;;4969398;28;20796;-85
2023/02/28 12:58:41;;;;;;;4.13;2.72;;;6.00;98.20;;;;;;4982084;28;20778;-86
2023/02/28 13:01:43;;;;;;;3.03;2.72;;;6.10;98.90;;;;;;4969728;28;20857;-85
2023/02/28 13:04:47;;;;;;;4.27;3.10;;;6.20;98.40;;;;;;4967982;28;20391;-85
2023/02/28 13:07:35;;;;;;;2.92;2.63;;;6.10;97.90;;;;;;4958621;28;20542;-87
2023/02/28 13:10:04;;;;;;;4.90;2.97;;;6.00;98.00;;;;;;4966049;28;20410;-86
2023/02/28 13:12:30;;;;;;;3.97;3.30;;;6.00;97.70;;;;;;4967274;28;20499;-86
2023/02/28 13:15:24;;;;;;;4.20;3.47;;;5.80;97.90;;;;;;4967473;28;20438;-86
2023/02/28 13:18:00;;;;;;;3.88;2.85;;;5.80;99.00;;;;;;4968188;28;20394;-87
2023/02/28 13:20:33;;;;;;;5.28;3.13;;;5.80;98.00;;;;;;4969366;28;20389;-86
2023/02/28 13:23:01;;;;;;;5.30;3.37;;;5.70;97.70;;;;;;4968988;28;20962;-86
2023/02/28 13:25:42;;;;;;;3.45;3.13;;;5.70;97.90;;;;;;4969888;28;20394;-85
2023/02/28 13:28:12;;;;;;;4.90;3.00;;;5.70;99.00;;;;;;4953925;28;22261;-85
2023/02/28 13:30:58;;;;;;;4.03;3.17;;;5.70;99.40;;;;;;4977370;28;20415;-85
2023/02/28 13:33:57;;;;;;;3.95;2.97;;;5.90;99.00;;;;;;4977165;28;20433;-85
2023/02/28 13:36:29;;;;;;;4.13;3.33;;;6.00;98.50;;;;;;4970279;28;20461;-85
2023/02/28 13:39:22;;;;;;;4.07;3.13;;;6.00;98.30;;;;;;4995010;28;20419;-85
2023/02/28 13:41:48;;;;;;;4.32;3.20;;;6.10;98.20;;;;;;4960588;28;20414;-77
2023/02/28 13:44:13;;;;;;;5.47;3.67;;;6.00;98.60;;;;;;4972437;28;20425;-85
2023/02/28 13:46:48;;;;;;;4.60;3.23;;;6.00;98.20;;;;;;4976739;28;20406;-85
2023/02/28 13:49:38;;;;;;;5.15;3.55;;;5.90;99.30;;;;;;4978938;28;20394;-84
2023/02/28 13:52:08;;;;;;;4.75;3.00;;;5.90;98.40;;;;;;4969320;28;20434;-86
2023/02/28 13:54:55;;;;;;;4.85;3.30;;;6.00;98.80;;;;;;4975558;28;20442;-86
2023/02/28 13:57:50;;;;;;;4.80;3.23;;;6.20;98.40;;;;;;4999536;28;20395;-86
2023/02/28 14:00:39;;;;;;;4.65;2.90;;;6.20;98.20;;;;;;4975033;28;21215;-86
2023/02/28 14:03:25;;;;;;;5.25;3.20;;;6.30;97.10;;;;;;4967968;28;20413;-86
2023/02/28 14:06:23;;;;;;;3.97;2.83;;;6.20;98.30;;;;;;4973859;28;20391;-86
2023/02/28 14:09:20;;;;;;;4.70;3.20;;;6.10;97.70;;;;;;4996996;28;20401;-87
2023/02/28 14:11:47;;;;;;;4.97;3.38;;;6.10;98.00;;;;;;4975092;28;20450;-87
2023/02/28 14:14:34;;;;;;;3.55;2.85;;;6.10;98.20;;;;;;4975248;28;20417;-87
2023/02/28 14:17:05;;;;;;;4.50;3.25;;;6.10;99.20;;;;;;4977082;28;20437;-86
2023/02/28 14:19:33;;;;;;;4.82;3.42;;;5.90;99.00;;;;;;4982214;28;20426;-87
2023/02/28 14:21:58;;;;;;;4.35;3.30;;;5.80;99.30;;;;;;4979338;28;20386;-86
2023/02/28 14:24:58;;;;;;;4.90;3.60;;;5.80;98.30;;;;;;4979228;28;20417;-88
2023/02/28 14:27:34;;;;;;;4.10;3.20;;;5.80;98.50;;;;;;4983882;28;20394;-87
2023/02/28 14:30:38;;;;;;;7.55;3.50;;;5.80;98.10;;;;;;5004631;28;20434;-86
2023/02/28 14:33:23;;;;;;;4.50;3.13;;;5.80;98.60;;;;;;4977909;28;20477;-86
2023/02/28 14:36:26;;;;;;;5.20;2.90;;;5.90;98.60;;;;;;4971054;28;20418;-86
2023/02/28 14:38:55;;;;;;;6.03;3.00;;;6.00;98.10;;;;;;4978451;28;20413;-86
2023/02/28 14:41:28;;;;;;;4.07;3.28;;;5.90;98.50;;;;;;4974861;28;20453;-85
2023/02/28 14:43:57;;;;;;;5.38;3.20;;;5.80;98.90;;;;;;4979956;28;20506;-86
2023/02/28 14:46:28;;;;;;;3.58;3.03;;;6.00;97.90;;;;;;4978869;28;20387;-87
2023/02/28 14:48:54;;;;;;;3.97;3.00;;;6.00;98.70;;;;;;4976916;28;20383;-87
2023/02/28 14:51:22;;;;;;;3.50;3.20;;;5.80;97.90;;;;;;4978210;28;20398;-87
2023/02/28 14:53:55;;;;;;;3.58;2.83;;;5.80;98.00;;;;;;4978487;28;20614;-88
2023/02/28 14:56:25;;;;;;;3.70;2.80;;;5.80;97.70;;;;;;4978495;28;20409;-86
2023/02/28 14:58:53;;;;;;;6.18;3.20;;;6.00;98.20;;;;;;4973621;28;20429;-88
2023/02/28 15:01:22;;;;;;;3.60;2.60;;;6.00;99.40;;;;;;4971396;28;20395;-86
2023/02/28 15:03:56;;;;;;;3.83;2.92;;;5.80;98.80;;;;;;4971262;28;20390;-88
2023/02/28 15:06:23;;;;;;;3.47;2.60;;;5.90;98.40;;;;;;4971266;28;20394;-88